sensor_id;sensor_type;location;lat;lon;timestamp;P1;durP1;ratioP1;P2;durP2;ratioP2
6679;SDS011;3376;42.664;23.346;2022-07-06T00:02:17;10.93;;;10.23;;
6679;SDS011;3376;42.664;23.346;2022-07-06T00:04:44;10.77;;;10.30;;
6679;SDS011;3376;42.664;23.346;2022-07-06T00:07:13;10.33;;;9.90;;
6679;SDS011;3376;42.664;23.346;2022-07-06T00:09:40;10.47;;;10.00;;
6679;SDS011;3376;42.664;23.346;2022-07-06T00:12:07;11.80;;;11.03;;
6679;SDS011;3376;42.664;23.346;2022-07-06T00:14:34;12.07;;;11.27;;
6679;SDS011;3376;42.664;23.346;2022-07-06T00:17:02;10.97;;;10.43;;
6679;SDS011;3376;42.664;23.346;2022-07-06T00:19:29;10.30;;;9.70;;
6679;SDS011;3376;42.664;23.346;2022-07-06T00:21:56;11.50;;;10.97;;
6679;SDS011;3376;42.664;23.346;2022-07-06T00:24:24;11.30;;;10.67;;
6679;SDS011;3376;42.664;23.346;2022-07-06T00:26:51;11.70;;;11.00;;
6679;SDS011;3376;42.664;23.346;2022-07-06T00:29:18;12.17;;;11.57;;
6679;SDS011;3376;42.664;23.346;2022-07-06T00:31:44;12.20;;;11.53;;
6679;SDS011;3376;42.664;23.346;2022-07-06T00:34:11;12.40;;;11.17;;
6679;SDS011;3376;42.664;23.346;2022-07-06T00:36:38;12.30;;;11.37;;
6679;SDS011;3376;42.664;23.346;2022-07-06T00:39:05;12.60;;;11.73;;
6679;SDS011;3376;42.664;23.346;2022-07-06T00:41:33;11.93;;;11.37;;
6679;SDS011;3376;42.664;23.346;2022-07-06T00:44:00;12.60;;;11.70;;
6679;SDS011;3376;42.664;23.346;2022-07-06T00:46:34;12.63;;;11.90;;
6679;SDS011;3376;42.664;23.346;2022-07-06T00:49:01;12.57;;;11.63;;
6679;SDS011;3376;42.664;23.346;2022-07-06T00:51:29;12.53;;;11.73;;
6679;SDS011;3376;42.664;23.346;2022-07-06T00:53:58;11.67;;;10.80;;
6679;SDS011;3376;42.664;23.346;2022-07-06T00:56:28;12.67;;;11.33;;
6679;SDS011;3376;42.664;23.346;2022-07-06T00:58:58;12.00;;;11.23;;
6679;SDS011;3376;42.664;23.346;2022-07-06T01:01:26;12.87;;;11.70;;
6679;SDS011;3376;42.664;23.346;2022-07-06T01:03:53;13.27;;;12.07;;
6679;SDS011;3376;42.664;23.346;2022-07-06T01:06:19;11.87;;;11.27;;
6679;SDS011;3376;42.664;23.346;2022-07-06T01:08:46;15.10;;;14.20;;
6679;SDS011;3376;42.664;23.346;2022-07-06T01:11:14;16.57;;;15.67;;
6679;SDS011;3376;42.664;23.346;2022-07-06T01:13:42;16.60;;;15.53;;
6679;SDS011;3376;42.664;23.346;2022-07-06T01:16:10;19.73;;;18.30;;
6679;SDS011;3376;42.664;23.346;2022-07-06T01:18:38;19.80;;;18.33;;
6679;SDS011;3376;42.664;23.346;2022-07-06T01:21:08;20.47;;;18.90;;
6679;SDS011;3376;42.664;23.346;2022-07-06T01:23:38;20.47;;;18.93;;
6679;SDS011;3376;42.664;23.346;2022-07-06T01:26:08;21.20;;;19.50;;
6679;SDS011;3376;42.664;23.346;2022-07-06T01:28:35;19.33;;;17.97;;
6679;SDS011;3376;42.664;23.346;2022-07-06T01:31:02;20.73;;;18.77;;
6679;SDS011;3376;42.664;23.346;2022-07-06T01:33:29;21.67;;;19.83;;
6679;SDS011;3376;42.664;23.346;2022-07-06T01:35:56;21.03;;;19.20;;
6679;SDS011;3376;42.664;23.346;2022-07-06T01:38:24;21.37;;;19.47;;
6679;SDS011;3376;42.664;23.346;2022-07-06T01:40:51;22.43;;;20.73;;
6679;SDS011;3376;42.664;23.346;2022-07-06T01:43:18;21.37;;;19.77;;
6679;SDS011;3376;42.664;23.346;2022-07-06T01:45:45;21.23;;;19.10;;
6679;SDS011;3376;42.664;23.346;2022-07-06T01:48:12;20.43;;;18.53;;
6679;SDS011;3376;42.664;23.346;2022-07-06T01:50:38;21.60;;;18.87;;
6679;SDS011;3376;42.664;23.346;2022-07-06T01:53:05;20.97;;;19.33;;
6679;SDS011;3376;42.664;23.346;2022-07-06T01:55:33;20.17;;;18.77;;
6679;SDS011;3376;42.664;23.346;2022-07-06T01:58:00;18.77;;;17.53;;
6679;SDS011;3376;42.664;23.346;2022-07-06T02:00:27;18.03;;;16.30;;
6679;SDS011;3376;42.664;23.346;2022-07-06T02:02:54;16.27;;;15.17;;
6679;SDS011;3376;42.664;23.346;2022-07-06T02:05:21;13.53;;;12.50;;
6679;SDS011;3376;42.664;23.346;2022-07-06T02:07:48;15.30;;;13.90;;
6679;SDS011;3376;42.664;23.346;2022-07-06T02:10:14;15.23;;;13.97;;
6679;SDS011;3376;42.664;23.346;2022-07-06T02:12:43;13.10;;;12.30;;
6679;SDS011;3376;42.664;23.346;2022-07-06T02:15:10;13.37;;;12.43;;
6679;SDS011;3376;42.664;23.346;2022-07-06T02:17:37;13.67;;;12.43;;
6679;SDS011;3376;42.664;23.346;2022-07-06T02:20:04;11.33;;;10.63;;
6679;SDS011;3376;42.664;23.346;2022-07-06T02:22:32;12.73;;;11.63;;
6679;SDS011;3376;42.664;23.346;2022-07-06T02:24:59;13.17;;;12.10;;
6679;SDS011;3376;42.664;23.346;2022-07-06T02:27:26;12.40;;;11.57;;
6679;SDS011;3376;42.664;23.346;2022-07-06T02:29:54;11.70;;;11.10;;
6679;SDS011;3376;42.664;23.346;2022-07-06T02:32:21;12.53;;;11.47;;
6679;SDS011;3376;42.664;23.346;2022-07-06T02:34:48;12.27;;;11.67;;
6679;SDS011;3376;42.664;23.346;2022-07-06T02:37:15;11.43;;;10.83;;
6679;SDS011;3376;42.664;23.346;2022-07-06T02:39:41;11.37;;;10.67;;
6679;SDS011;3376;42.664;23.346;2022-07-06T02:42:08;11.20;;;10.60;;
6679;SDS011;3376;42.664;23.346;2022-07-06T02:44:35;11.23;;;10.33;;
6679;SDS011;3376;42.664;23.346;2022-07-06T02:47:03;12.07;;;11.30;;
6679;SDS011;3376;42.664;23.346;2022-07-06T02:49:30;11.83;;;10.90;;
6679;SDS011;3376;42.664;23.346;2022-07-06T02:51:57;10.80;;;10.27;;
6679;SDS011;3376;42.664;23.346;2022-07-06T02:54:24;10.73;;;10.13;;
6679;SDS011;3376;42.664;23.346;2022-07-06T02:56:51;12.57;;;11.67;;
6679;SDS011;3376;42.664;23.346;2022-07-06T02:59:18;10.20;;;9.70;;
6679;SDS011;3376;42.664;23.346;2022-07-06T03:01:45;11.37;;;10.77;;
6679;SDS011;3376;42.664;23.346;2022-07-06T03:04:13;10.60;;;10.07;;
6679;SDS011;3376;42.664;23.346;2022-07-06T03:06:40;10.87;;;9.97;;
6679;SDS011;3376;42.664;23.346;2022-07-06T03:09:07;12.87;;;11.70;;
6679;SDS011;3376;42.664;23.346;2022-07-06T03:11:33;12.80;;;12.00;;
6679;SDS011;3376;42.664;23.346;2022-07-06T03:14:01;12.20;;;11.10;;
6679;SDS011;3376;42.664;23.346;2022-07-06T03:16:28;11.67;;;11.00;;
6679;SDS011;3376;42.664;23.346;2022-07-06T03:18:55;12.83;;;11.63;;
6679;SDS011;3376;42.664;23.346;2022-07-06T03:21:24;12.90;;;12.00;;
6679;SDS011;3376;42.664;23.346;2022-07-06T03:23:51;11.80;;;11.13;;
6679;SDS011;3376;42.664;23.346;2022-07-06T03:26:18;12.07;;;11.07;;
6679;SDS011;3376;42.664;23.346;2022-07-06T03:28:45;11.83;;;10.83;;
6679;SDS011;3376;42.664;23.346;2022-07-06T03:31:12;14.97;;;12.07;;
6679;SDS011;3376;42.664;23.346;2022-07-06T03:33:39;13.90;;;12.00;;
6679;SDS011;3376;42.664;23.346;2022-07-06T03:36:06;11.00;;;10.60;;
6679;SDS011;3376;42.664;23.346;2022-07-06T03:38:35;12.80;;;12.03;;
6679;SDS011;3376;42.664;23.346;2022-07-06T03:41:02;12.13;;;10.90;;
6679;SDS011;3376;42.664;23.346;2022-07-06T03:43:29;12.50;;;11.67;;
6679;SDS011;3376;42.664;23.346;2022-07-06T03:45:56;12.03;;;11.10;;
6679;SDS011;3376;42.664;23.346;2022-07-06T03:48:23;12.33;;;11.17;;
6679;SDS011;3376;42.664;23.346;2022-07-06T03:50:50;11.70;;;11.07;;
6679;SDS011;3376;42.664;23.346;2022-07-06T03:53:17;12.43;;;11.37;;
6679;SDS011;3376;42.664;23.346;2022-07-06T03:55:45;12.20;;;11.27;;
6679;SDS011;3376;42.664;23.346;2022-07-06T03:58:32;11.67;;;10.87;;
6679;SDS011;3376;42.664;23.346;2022-07-06T04:00:59;12.70;;;11.43;;
6679;SDS011;3376;42.664;23.346;2022-07-06T04:03:26;11.53;;;10.53;;
6679;SDS011;3376;42.664;23.346;2022-07-06T04:05:53;10.97;;;10.07;;
6679;SDS011;3376;42.664;23.346;2022-07-06T04:08:20;9.97;;;9.13;;
6679;SDS011;3376;42.664;23.346;2022-07-06T04:10:48;10.07;;;9.43;;
6679;SDS011;3376;42.664;23.346;2022-07-06T04:13:15;10.17;;;8.30;;
6679;SDS011;3376;42.664;23.346;2022-07-06T04:15:41;9.10;;;8.53;;
6679;SDS011;3376;42.664;23.346;2022-07-06T04:18:08;9.43;;;8.87;;
6679;SDS011;3376;42.664;23.346;2022-07-06T04:20:35;8.97;;;8.37;;
6679;SDS011;3376;42.664;23.346;2022-07-06T04:23:02;8.93;;;8.37;;
6679;SDS011;3376;42.664;23.346;2022-07-06T04:25:29;7.97;;;7.50;;
6679;SDS011;3376;42.664;23.346;2022-07-06T04:27:57;8.20;;;7.10;;
6679;SDS011;3376;42.664;23.346;2022-07-06T04:30:24;7.63;;;6.97;;
6679;SDS011;3376;42.664;23.346;2022-07-06T04:32:51;7.70;;;7.30;;
6679;SDS011;3376;42.664;23.346;2022-07-06T04:35:18;7.70;;;7.30;;
6679;SDS011;3376;42.664;23.346;2022-07-06T04:37:45;7.43;;;6.83;;
6679;SDS011;3376;42.664;23.346;2022-07-06T04:40:12;6.97;;;6.57;;
6679;SDS011;3376;42.664;23.346;2022-07-06T04:42:39;7.03;;;6.43;;
6679;SDS011;3376;42.664;23.346;2022-07-06T04:45:07;6.40;;;6.10;;
6679;SDS011;3376;42.664;23.346;2022-07-06T04:47:35;6.87;;;6.30;;
6679;SDS011;3376;42.664;23.346;2022-07-06T04:50:02;6.93;;;6.43;;
6679;SDS011;3376;42.664;23.346;2022-07-06T04:52:30;8.17;;;6.83;;
6679;SDS011;3376;42.664;23.346;2022-07-06T04:54:57;7.20;;;6.83;;
6679;SDS011;3376;42.664;23.346;2022-07-06T04:57:24;6.97;;;6.67;;
6679;SDS011;3376;42.664;23.346;2022-07-06T04:59:51;7.93;;;7.63;;
6679;SDS011;3376;42.664;23.346;2022-07-06T05:02:19;9.67;;;8.67;;
6679;SDS011;3376;42.664;23.346;2022-07-06T05:04:46;7.97;;;7.47;;
6679;SDS011;3376;42.664;23.346;2022-07-06T05:07:13;10.47;;;9.53;;
6679;SDS011;3376;42.664;23.346;2022-07-06T05:09:40;10.37;;;9.23;;
6679;SDS011;3376;42.664;23.346;2022-07-06T05:12:08;10.33;;;9.53;;
6679;SDS011;3376;42.664;23.346;2022-07-06T05:14:35;12.17;;;11.53;;
6679;SDS011;3376;42.664;23.346;2022-07-06T05:17:03;11.77;;;10.47;;
6679;SDS011;3376;42.664;23.346;2022-07-06T05:19:31;15.27;;;10.60;;
6679;SDS011;3376;42.664;23.346;2022-07-06T05:21:58;13.00;;;11.93;;
6679;SDS011;3376;42.664;23.346;2022-07-06T05:24:25;12.83;;;12.03;;
6679;SDS011;3376;42.664;23.346;2022-07-06T05:26:51;12.13;;;11.53;;
6679;SDS011;3376;42.664;23.346;2022-07-06T05:29:18;12.80;;;12.03;;
6679;SDS011;3376;42.664;23.346;2022-07-06T05:31:45;12.63;;;11.57;;
6679;SDS011;3376;42.664;23.346;2022-07-06T05:34:12;12.70;;;11.67;;
6679;SDS011;3376;42.664;23.346;2022-07-06T05:36:40;11.37;;;10.67;;
6679;SDS011;3376;42.664;23.346;2022-07-06T05:39:07;14.00;;;12.80;;
6679;SDS011;3376;42.664;23.346;2022-07-06T05:41:34;11.67;;;10.87;;
6679;SDS011;3376;42.664;23.346;2022-07-06T05:44:01;12.00;;;11.17;;
6679;SDS011;3376;42.664;23.346;2022-07-06T05:46:28;12.40;;;11.40;;
6679;SDS011;3376;42.664;23.346;2022-07-06T05:48:55;11.93;;;11.13;;
6679;SDS011;3376;42.664;23.346;2022-07-06T05:51:40;11.03;;;10.23;;
6679;SDS011;3376;42.664;23.346;2022-07-06T05:54:07;11.27;;;10.37;;
6679;SDS011;3376;42.664;23.346;2022-07-06T05:56:34;10.87;;;10.07;;
6679;SDS011;3376;42.664;23.346;2022-07-06T05:59:01;11.43;;;10.30;;
6679;SDS011;3376;42.664;23.346;2022-07-06T06:01:28;12.83;;;10.83;;
6679;SDS011;3376;42.664;23.346;2022-07-06T06:03:55;11.37;;;10.77;;
6679;SDS011;3376;42.664;23.346;2022-07-06T06:06:22;10.90;;;10.37;;
6679;SDS011;3376;42.664;23.346;2022-07-06T06:08:50;11.43;;;10.73;;
6679;SDS011;3376;42.664;23.346;2022-07-06T06:11:17;11.37;;;10.30;;
6679;SDS011;3376;42.664;23.346;2022-07-06T06:13:44;11.23;;;10.47;;
6679;SDS011;3376;42.664;23.346;2022-07-06T06:16:10;9.40;;;8.93;;
6679;SDS011;3376;42.664;23.346;2022-07-06T06:18:37;10.83;;;10.00;;
6679;SDS011;3376;42.664;23.346;2022-07-06T06:21:04;9.50;;;9.00;;
6679;SDS011;3376;42.664;23.346;2022-07-06T06:23:31;10.13;;;9.53;;
6679;SDS011;3376;42.664;23.346;2022-07-06T06:25:59;10.53;;;9.90;;
6679;SDS011;3376;42.664;23.346;2022-07-06T06:28:26;13.63;;;9.97;;
6679;SDS011;3376;42.664;23.346;2022-07-06T06:30:53;9.97;;;9.37;;
6679;SDS011;3376;42.664;23.346;2022-07-06T06:33:20;12.90;;;9.27;;
6679;SDS011;3376;42.664;23.346;2022-07-06T06:35:47;11.17;;;10.20;;
6679;SDS011;3376;42.664;23.346;2022-07-06T06:38:16;10.83;;;10.13;;
6679;SDS011;3376;42.664;23.346;2022-07-06T06:40:43;11.20;;;10.40;;
6679;SDS011;3376;42.664;23.346;2022-07-06T06:43:12;11.17;;;10.57;;
6679;SDS011;3376;42.664;23.346;2022-07-06T06:45:39;11.87;;;11.20;;
6679;SDS011;3376;42.664;23.346;2022-07-06T06:48:07;11.37;;;10.50;;
6679;SDS011;3376;42.664;23.346;2022-07-06T06:50:33;12.60;;;11.87;;
6679;SDS011;3376;42.664;23.346;2022-07-06T06:53:01;12.27;;;11.37;;
6679;SDS011;3376;42.664;23.346;2022-07-06T06:55:29;12.60;;;11.70;;
6679;SDS011;3376;42.664;23.346;2022-07-06T06:57:55;12.83;;;12.07;;
6679;SDS011;3376;42.664;23.346;2022-07-06T07:00:24;11.60;;;11.10;;
6679;SDS011;3376;42.664;23.346;2022-07-06T07:02:50;11.93;;;11.13;;
6679;SDS011;3376;42.664;23.346;2022-07-06T07:05:17;12.73;;;12.13;;
6679;SDS011;3376;42.664;23.346;2022-07-06T07:07:44;13.13;;;12.43;;
6679;SDS011;3376;42.664;23.346;2022-07-06T07:10:11;12.67;;;11.83;;
6679;SDS011;3376;42.664;23.346;2022-07-06T07:12:44;12.47;;;11.67;;
6679;SDS011;3376;42.664;23.346;2022-07-06T07:15:12;13.83;;;12.67;;
6679;SDS011;3376;42.664;23.346;2022-07-06T07:17:41;13.23;;;12.23;;
6679;SDS011;3376;42.664;23.346;2022-07-06T07:20:08;13.83;;;12.97;;
6679;SDS011;3376;42.664;23.346;2022-07-06T07:22:36;13.73;;;12.63;;
6679;SDS011;3376;42.664;23.346;2022-07-06T07:25:03;13.37;;;12.40;;
6679;SDS011;3376;42.664;23.346;2022-07-06T07:27:31;12.83;;;12.10;;
6679;SDS011;3376;42.664;23.346;2022-07-06T07:29:58;12.43;;;11.67;;
6679;SDS011;3376;42.664;23.346;2022-07-06T07:32:25;13.70;;;12.77;;
6679;SDS011;3376;42.664;23.346;2022-07-06T07:34:53;12.33;;;11.53;;
6679;SDS011;3376;42.664;23.346;2022-07-06T07:37:20;12.40;;;11.43;;
6679;SDS011;3376;42.664;23.346;2022-07-06T07:39:47;13.23;;;12.33;;
6679;SDS011;3376;42.664;23.346;2022-07-06T07:42:14;11.97;;;11.17;;
6679;SDS011;3376;42.664;23.346;2022-07-06T07:44:41;13.03;;;12.33;;
6679;SDS011;3376;42.664;23.346;2022-07-06T07:47:07;13.53;;;12.80;;
6679;SDS011;3376;42.664;23.346;2022-07-06T07:49:34;12.70;;;11.90;;
6679;SDS011;3376;42.664;23.346;2022-07-06T07:52:03;12.77;;;12.03;;
6679;SDS011;3376;42.664;23.346;2022-07-06T07:54:30;17.03;;;15.80;;
6679;SDS011;3376;42.664;23.346;2022-07-06T07:56:57;18.40;;;16.77;;
6679;SDS011;3376;42.664;23.346;2022-07-06T07:59:24;12.40;;;11.77;;
6679;SDS011;3376;42.664;23.346;2022-07-06T08:01:51;12.47;;;11.70;;
6679;SDS011;3376;42.664;23.346;2022-07-06T08:04:18;12.50;;;11.77;;
6679;SDS011;3376;42.664;23.346;2022-07-06T08:06:45;13.17;;;12.53;;
6679;SDS011;3376;42.664;23.346;2022-07-06T08:09:13;12.83;;;11.57;;
6679;SDS011;3376;42.664;23.346;2022-07-06T08:11:41;12.27;;;11.67;;
6679;SDS011;3376;42.664;23.346;2022-07-06T08:14:08;13.40;;;12.47;;
6679;SDS011;3376;42.664;23.346;2022-07-06T08:16:36;12.83;;;12.13;;
6679;SDS011;3376;42.664;23.346;2022-07-06T08:19:03;12.27;;;11.50;;
6679;SDS011;3376;42.664;23.346;2022-07-06T08:21:30;12.07;;;11.03;;
6679;SDS011;3376;42.664;23.346;2022-07-06T08:23:57;10.93;;;10.40;;
6679;SDS011;3376;42.664;23.346;2022-07-06T08:26:27;11.47;;;10.87;;
6679;SDS011;3376;42.664;23.346;2022-07-06T08:28:54;12.27;;;11.40;;
6679;SDS011;3376;42.664;23.346;2022-07-06T08:31:21;11.77;;;10.97;;
6679;SDS011;3376;42.664;23.346;2022-07-06T08:33:48;12.30;;;11.60;;
6679;SDS011;3376;42.664;23.346;2022-07-06T08:36:18;10.73;;;9.97;;
6679;SDS011;3376;42.664;23.346;2022-07-06T08:38:45;12.33;;;11.67;;
6679;SDS011;3376;42.664;23.346;2022-07-06T08:41:12;11.77;;;11.17;;
6679;SDS011;3376;42.664;23.346;2022-07-06T08:43:42;11.90;;;11.30;;
6679;SDS011;3376;42.664;23.346;2022-07-06T08:46:09;12.00;;;11.30;;
6679;SDS011;3376;42.664;23.346;2022-07-06T08:48:39;10.97;;;10.47;;
6679;SDS011;3376;42.664;23.346;2022-07-06T08:51:06;12.00;;;11.20;;
6679;SDS011;3376;42.664;23.346;2022-07-06T08:53:33;12.00;;;11.20;;
6679;SDS011;3376;42.664;23.346;2022-07-06T08:56:00;12.60;;;11.90;;
6679;SDS011;3376;42.664;23.346;2022-07-06T08:58:28;12.10;;;11.30;;
6679;SDS011;3376;42.664;23.346;2022-07-06T09:00:56;10.93;;;10.23;;
6679;SDS011;3376;42.664;23.346;2022-07-06T09:03:23;11.37;;;10.57;;
6679;SDS011;3376;42.664;23.346;2022-07-06T09:05:51;11.13;;;10.33;;
6679;SDS011;3376;42.664;23.346;2022-07-06T09:08:19;11.40;;;10.73;;
6679;SDS011;3376;42.664;23.346;2022-07-06T09:10:47;11.15;;;10.65;;
6679;SDS011;3376;42.664;23.346;2022-07-06T09:13:14;12.38;;;11.88;;
6679;SDS011;3376;42.664;23.346;2022-07-06T09:15:41;16.55;;;14.23;;
6679;SDS011;3376;42.664;23.346;2022-07-06T09:18:09;13.30;;;12.23;;
6679;SDS011;3376;42.664;23.346;2022-07-06T09:20:36;13.07;;;12.38;;
6679;SDS011;3376;42.664;23.346;2022-07-06T09:23:03;13.10;;;12.07;;
6679;SDS011;3376;42.664;23.346;2022-07-06T09:25:31;12.80;;;12.20;;
6679;SDS011;3376;42.664;23.346;2022-07-06T09:27:59;13.07;;;12.13;;
6679;SDS011;3376;42.664;23.346;2022-07-06T09:30:27;13.33;;;12.43;;
6679;SDS011;3376;42.664;23.346;2022-07-06T09:32:55;11.97;;;11.03;;
6679;SDS011;3376;42.664;23.346;2022-07-06T09:35:25;11.80;;;11.03;;
6679;SDS011;3376;42.664;23.346;2022-07-06T09:38:01;11.97;;;11.13;;
6679;SDS011;3376;42.664;23.346;2022-07-06T09:40:30;11.50;;;10.90;;
6679;SDS011;3376;42.664;23.346;2022-07-06T09:43:11;10.20;;;9.80;;
6679;SDS011;3376;42.664;23.346;2022-07-06T09:45:40;11.33;;;10.60;;
6679;SDS011;3376;42.664;23.346;2022-07-06T09:48:08;12.20;;;11.60;;
6679;SDS011;3376;42.664;23.346;2022-07-06T09:50:41;12.43;;;11.60;;
6679;SDS011;3376;42.664;23.346;2022-07-06T09:53:09;11.97;;;11.37;;
6679;SDS011;3376;42.664;23.346;2022-07-06T09:55:37;12.73;;;12.20;;
6679;SDS011;3376;42.664;23.346;2022-07-06T09:58:04;12.37;;;11.53;;
6679;SDS011;3376;42.664;23.346;2022-07-06T10:00:31;13.07;;;12.25;;
6679;SDS011;3376;42.664;23.346;2022-07-06T10:02:58;13.85;;;12.93;;
6679;SDS011;3376;42.664;23.346;2022-07-06T10:05:26;13.77;;;12.93;;
6679;SDS011;3376;42.664;23.346;2022-07-06T10:07:57;15.57;;;14.43;;
6679;SDS011;3376;42.664;23.346;2022-07-06T10:10:27;13.20;;;12.32;;
6679;SDS011;3376;42.664;23.346;2022-07-06T10:12:56;13.80;;;12.82;;
6679;SDS011;3376;42.664;23.346;2022-07-06T10:15:24;12.25;;;11.65;;
6679;SDS011;3376;42.664;23.346;2022-07-06T10:17:52;13.52;;;12.73;;
6679;SDS011;3376;42.664;23.346;2022-07-06T10:20:20;13.38;;;12.77;;
6679;SDS011;3376;42.664;23.346;2022-07-06T10:22:48;14.02;;;13.18;;
6679;SDS011;3376;42.664;23.346;2022-07-06T10:25:17;13.43;;;12.48;;
6679;SDS011;3376;42.664;23.346;2022-07-06T10:27:45;13.77;;;12.82;;
6679;SDS011;3376;42.664;23.346;2022-07-06T10:30:13;12.93;;;12.15;;
6679;SDS011;3376;42.664;23.346;2022-07-06T10:32:41;11.45;;;10.88;;
6679;SDS011;3376;42.664;23.346;2022-07-06T10:35:10;14.05;;;13.38;;
6679;SDS011;3376;42.664;23.346;2022-07-06T10:37:38;14.25;;;13.35;;
6679;SDS011;3376;42.664;23.346;2022-07-06T10:40:05;14.68;;;13.98;;
6679;SDS011;3376;42.664;23.346;2022-07-06T10:42:57;13.70;;;12.73;;
6679;SDS011;3376;42.664;23.346;2022-07-06T10:48:17;16.42;;;15.27;;
6679;SDS011;3376;42.664;23.346;2022-07-06T10:50:47;13.73;;;13.00;;
6679;SDS011;3376;42.664;23.346;2022-07-06T10:53:15;14.27;;;13.30;;
6679;SDS011;3376;42.664;23.346;2022-07-06T10:55:44;13.70;;;12.95;;
6679;SDS011;3376;42.664;23.346;2022-07-06T10:58:14;13.13;;;12.43;;
6679;SDS011;3376;42.664;23.346;2022-07-06T11:00:50;12.30;;;11.80;;
6679;SDS011;3376;42.664;23.346;2022-07-06T11:03:31;13.93;;;13.02;;
6679;SDS011;3376;42.664;23.346;2022-07-06T11:05:59;14.38;;;13.52;;
6679;SDS011;3376;42.664;23.346;2022-07-06T11:11:25;14.15;;;13.50;;
6679;SDS011;3376;42.664;23.346;2022-07-06T11:13:54;14.98;;;14.00;;
6679;SDS011;3376;42.664;23.346;2022-07-06T11:16:25;14.27;;;13.57;;
6679;SDS011;3376;42.664;23.346;2022-07-06T11:21:44;14.18;;;13.30;;
6679;SDS011;3376;42.664;23.346;2022-07-06T11:24:12;14.55;;;13.80;;
6679;SDS011;3376;42.664;23.346;2022-07-06T11:26:41;14.02;;;13.10;;
6679;SDS011;3376;42.664;23.346;2022-07-06T11:29:10;15.57;;;14.50;;
6679;SDS011;3376;42.664;23.346;2022-07-06T11:31:38;13.52;;;12.80;;
6679;SDS011;3376;42.664;23.346;2022-07-06T11:34:07;14.68;;;13.65;;
6679;SDS011;3376;42.664;23.346;2022-07-06T11:36:39;14.73;;;13.82;;
6679;SDS011;3376;42.664;23.346;2022-07-06T11:39:07;13.48;;;12.63;;
6679;SDS011;3376;42.664;23.346;2022-07-06T11:41:34;14.13;;;13.20;;
6679;SDS011;3376;42.664;23.346;2022-07-06T11:44:02;13.85;;;13.07;;
6679;SDS011;3376;42.664;23.346;2022-07-06T11:46:31;13.82;;;13.18;;
6679;SDS011;3376;42.664;23.346;2022-07-06T11:49:00;15.32;;;14.52;;
6679;SDS011;3376;42.664;23.346;2022-07-06T11:51:29;15.38;;;14.50;;
6679;SDS011;3376;42.664;23.346;2022-07-06T11:53:57;14.35;;;13.75;;
6679;SDS011;3376;42.664;23.346;2022-07-06T11:56:26;11.75;;;11.25;;
6679;SDS011;3376;42.664;23.346;2022-07-06T11:58:55;12.57;;;12.07;;
6679;SDS011;3376;42.664;23.346;2022-07-06T12:01:24;14.15;;;13.35;;
6679;SDS011;3376;42.664;23.346;2022-07-06T12:03:56;13.55;;;12.95;;
6679;SDS011;3376;42.664;23.346;2022-07-06T12:06:24;13.30;;;12.70;;
6679;SDS011;3376;42.664;23.346;2022-07-06T12:08:52;12.15;;;11.50;;
6679;SDS011;3376;42.664;23.346;2022-07-06T12:11:20;12.77;;;12.30;;
6679;SDS011;3376;42.664;23.346;2022-07-06T12:13:52;12.68;;;12.00;;
6679;SDS011;3376;42.664;23.346;2022-07-06T12:16:21;13.48;;;12.77;;
6679;SDS011;3376;42.664;23.346;2022-07-06T12:18:56;13.75;;;12.73;;
6679;SDS011;3376;42.664;23.346;2022-07-06T12:21:23;13.05;;;12.55;;
6679;SDS011;3376;42.664;23.346;2022-07-06T12:23:50;12.05;;;11.18;;
6679;SDS011;3376;42.664;23.346;2022-07-06T12:26:19;11.48;;;11.07;;
6679;SDS011;3376;42.664;23.346;2022-07-06T12:28:58;11.77;;;11.27;;
6679;SDS011;3376;42.664;23.346;2022-07-06T12:31:33;11.50;;;11.00;;
6679;SDS011;3376;42.664;23.346;2022-07-06T12:34:03;11.20;;;10.70;;
6679;SDS011;3376;42.664;23.346;2022-07-06T12:36:31;12.23;;;11.55;;
6679;SDS011;3376;42.664;23.346;2022-07-06T12:39:09;11.75;;;11.25;;
6679;SDS011;3376;42.664;23.346;2022-07-06T12:41:36;11.43;;;10.75;;
6679;SDS011;3376;42.664;23.346;2022-07-06T12:44:05;13.15;;;12.07;;
6679;SDS011;3376;42.664;23.346;2022-07-06T12:46:34;10.63;;;10.13;;
6679;SDS011;3376;42.664;23.346;2022-07-06T12:49:10;10.98;;;10.57;;
6679;SDS011;3376;42.664;23.346;2022-07-06T12:54:26;10.63;;;10.07;;
6679;SDS011;3376;42.664;23.346;2022-07-06T12:59:42;10.52;;;10.10;;
6679;SDS011;3376;42.664;23.346;2022-07-06T13:02:17;8.55;;;8.05;;
6679;SDS011;3376;42.664;23.346;2022-07-06T13:04:55;8.27;;;7.88;;
6679;SDS011;3376;42.664;23.346;2022-07-06T13:07:23;9.63;;;9.10;;
6679;SDS011;3376;42.664;23.346;2022-07-06T13:09:51;7.53;;;7.22;;
6679;SDS011;3376;42.664;23.346;2022-07-06T13:12:17;7.97;;;7.57;;
6679;SDS011;3376;42.664;23.346;2022-07-06T13:14:44;7.57;;;7.32;;
6679;SDS011;3376;42.664;23.346;2022-07-06T13:17:12;7.55;;;7.32;;
6679;SDS011;3376;42.664;23.346;2022-07-06T13:19:38;6.97;;;6.78;;
6679;SDS011;3376;42.664;23.346;2022-07-06T13:22:07;7.32;;;6.80;;
6679;SDS011;3376;42.664;23.346;2022-07-06T13:24:34;6.18;;;5.88;;
6679;SDS011;3376;42.664;23.346;2022-07-06T13:27:01;5.80;;;5.40;;
6679;SDS011;3376;42.664;23.346;2022-07-06T13:29:29;5.70;;;5.40;;
6679;SDS011;3376;42.664;23.346;2022-07-06T13:31:55;5.57;;;5.38;;
6679;SDS011;3376;42.664;23.346;2022-07-06T13:34:22;4.95;;;4.82;;
6679;SDS011;3376;42.664;23.346;2022-07-06T13:36:50;5.38;;;5.05;;
6679;SDS011;3376;42.664;23.346;2022-07-06T13:39:18;4.65;;;4.55;;
6679;SDS011;3376;42.664;23.346;2022-07-06T13:41:45;3.85;;;3.75;;
6679;SDS011;3376;42.664;23.346;2022-07-06T13:44:12;4.68;;;4.47;;
6679;SDS011;3376;42.664;23.346;2022-07-06T13:46:39;4.95;;;4.65;;
6679;SDS011;3376;42.664;23.346;2022-07-06T13:49:07;4.40;;;4.20;;
6679;SDS011;3376;42.664;23.346;2022-07-06T13:51:34;3.80;;;3.70;;
6679;SDS011;3376;42.664;23.346;2022-07-06T13:54:01;4.40;;;4.10;;
6679;SDS011;3376;42.664;23.346;2022-07-06T13:56:30;2.95;;;2.83;;
6679;SDS011;3376;42.664;23.346;2022-07-06T13:58:57;3.65;;;3.35;;
6679;SDS011;3376;42.664;23.346;2022-07-06T14:01:24;3.22;;;3.13;;
6679;SDS011;3376;42.664;23.346;2022-07-06T14:03:51;3.80;;;3.50;;
6679;SDS011;3376;42.664;23.346;2022-07-06T14:06:18;3.53;;;3.42;;
6679;SDS011;3376;42.664;23.346;2022-07-06T14:08:46;3.13;;;3.00;;
6679;SDS011;3376;42.664;23.346;2022-07-06T14:11:13;3.45;;;3.20;;
6679;SDS011;3376;42.664;23.346;2022-07-06T14:13:41;2.97;;;2.75;;
6679;SDS011;3376;42.664;23.346;2022-07-06T14:16:08;4.25;;;2.83;;
6679;SDS011;3376;42.664;23.346;2022-07-06T14:18:35;3.50;;;2.42;;
6679;SDS011;3376;42.664;23.346;2022-07-06T14:21:02;2.70;;;2.50;;
6679;SDS011;3376;42.664;23.346;2022-07-06T14:23:30;2.67;;;2.58;;
6679;SDS011;3376;42.664;23.346;2022-07-06T14:25:57;4.05;;;2.45;;
6679;SDS011;3376;42.664;23.346;2022-07-06T14:28:24;2.15;;;2.15;;
6679;SDS011;3376;42.664;23.346;2022-07-06T14:30:52;2.40;;;2.40;;
6679;SDS011;3376;42.664;23.346;2022-07-06T14:33:19;2.53;;;2.42;;
6679;SDS011;3376;42.664;23.346;2022-07-06T14:35:47;3.13;;;3.03;;
6679;SDS011;3376;42.664;23.346;2022-07-06T14:38:16;2.63;;;2.42;;
6679;SDS011;3376;42.664;23.346;2022-07-06T14:40:43;2.35;;;2.25;;
6679;SDS011;3376;42.664;23.346;2022-07-06T14:43:13;2.05;;;2.05;;
6679;SDS011;3376;42.664;23.346;2022-07-06T14:45:39;2.10;;;2.00;;
6679;SDS011;3376;42.664;23.346;2022-07-06T14:48:08;2.70;;;2.60;;
6679;SDS011;3376;42.664;23.346;2022-07-06T14:50:35;2.33;;;2.33;;
6679;SDS011;3376;42.664;23.346;2022-07-06T14:53:02;2.75;;;2.55;;
6679;SDS011;3376;42.664;23.346;2022-07-06T14:55:29;2.60;;;2.50;;
6679;SDS011;3376;42.664;23.346;2022-07-06T14:57:56;2.30;;;2.10;;
6679;SDS011;3376;42.664;23.346;2022-07-06T15:00:23;3.95;;;3.70;;